sensor_id;sensor_type;location;lat;lon;timestamp;P1;durP1;ratioP1;P2;durP2;ratioP2
37407;SDS011;24866;50.248;8.252;2023-08-20T00:02:19;11.27;;;6.43;;
37407;SDS011;24866;50.248;8.252;2023-08-20T00:04:52;11.50;;;6.78;;
37407;SDS011;24866;50.248;8.252;2023-08-20T00:09:55;9.32;;;6.68;;
37407;SDS011;24866;50.248;8.252;2023-08-20T00:12:25;12.23;;;5.65;;
37407;SDS011;24866;50.248;8.252;2023-08-20T00:14:55;10.10;;;5.95;;
37407;SDS011;24866;50.248;8.252;2023-08-20T00:17:34;14.00;;;6.30;;
37407;SDS011;24866;50.248;8.252;2023-08-20T00:20:06;11.60;;;6.38;;
37407;SDS011;24866;50.248;8.252;2023-08-20T00:22:40;11.38;;;6.28;;
37407;SDS011;24866;50.248;8.252;2023-08-20T00:25:13;12.95;;;6.07;;
37407;SDS011;24866;50.248;8.252;2023-08-20T00:27:44;10.02;;;6.13;;
37407;SDS011;24866;50.248;8.252;2023-08-20T00:30:14;10.25;;;6.05;;
37407;SDS011;24866;50.248;8.252;2023-08-20T00:32:45;11.02;;;6.07;;
37407;SDS011;24866;50.248;8.252;2023-08-20T00:35:16;10.32;;;6.10;;
37407;SDS011;24866;50.248;8.252;2023-08-20T00:37:46;10.43;;;6.15;;
37407;SDS011;24866;50.248;8.252;2023-08-20T00:40:16;12.93;;;6.90;;
37407;SDS011;24866;50.248;8.252;2023-08-20T00:42:47;10.63;;;6.32;;
37407;SDS011;24866;50.248;8.252;2023-08-20T00:45:18;10.25;;;7.20;;
37407;SDS011;24866;50.248;8.252;2023-08-20T00:47:49;13.43;;;7.15;;
37407;SDS011;24866;50.248;8.252;2023-08-20T00:50:19;12.60;;;7.07;;
37407;SDS011;24866;50.248;8.252;2023-08-20T00:52:50;10.65;;;7.43;;
37407;SDS011;24866;50.248;8.252;2023-08-20T00:55:20;11.40;;;7.72;;
37407;SDS011;24866;50.248;8.252;2023-08-20T00:57:50;9.35;;;6.13;;
37407;SDS011;24866;50.248;8.252;2023-08-20T01:00:20;9.88;;;6.65;;
37407;SDS011;24866;50.248;8.252;2023-08-20T01:02:53;10.43;;;5.85;;
37407;SDS011;24866;50.248;8.252;2023-08-20T01:05:23;9.40;;;6.30;;
37407;SDS011;24866;50.248;8.252;2023-08-20T01:08:06;10.93;;;6.05;;
37407;SDS011;24866;50.248;8.252;2023-08-20T01:10:48;14.02;;;6.72;;
37407;SDS011;24866;50.248;8.252;2023-08-20T01:13:25;9.63;;;6.28;;
37407;SDS011;24866;50.248;8.252;2023-08-20T01:15:55;11.02;;;5.72;;
37407;SDS011;24866;50.248;8.252;2023-08-20T01:18:27;10.93;;;5.90;;
37407;SDS011;24866;50.248;8.252;2023-08-20T01:20:58;9.85;;;5.80;;
37407;SDS011;24866;50.248;8.252;2023-08-20T01:23:49;11.52;;;6.20;;
37407;SDS011;24866;50.248;8.252;2023-08-20T01:26:42;7.60;;;6.53;;
37407;SDS011;24866;50.248;8.252;2023-08-20T01:29:31;9.30;;;5.60;;
37407;SDS011;24866;50.248;8.252;2023-08-20T01:32:01;9.38;;;6.07;;
37407;SDS011;24866;50.248;8.252;2023-08-20T01:34:33;14.13;;;6.13;;
37407;SDS011;24866;50.248;8.252;2023-08-20T01:37:03;7.90;;;5.80;;
37407;SDS011;24866;50.248;8.252;2023-08-20T01:39:33;12.68;;;5.90;;
37407;SDS011;24866;50.248;8.252;2023-08-20T01:42:03;11.05;;;6.32;;
37407;SDS011;24866;50.248;8.252;2023-08-20T01:44:35;14.88;;;7.75;;
37407;SDS011;24866;50.248;8.252;2023-08-20T01:47:06;9.27;;;6.67;;
37407;SDS011;24866;50.248;8.252;2023-08-20T01:49:35;8.30;;;6.82;;
37407;SDS011;24866;50.248;8.252;2023-08-20T01:52:05;9.68;;;6.47;;
37407;SDS011;24866;50.248;8.252;2023-08-20T01:54:35;13.10;;;7.22;;
37407;SDS011;24866;50.248;8.252;2023-08-20T01:57:05;9.48;;;6.35;;
37407;SDS011;24866;50.248;8.252;2023-08-20T01:59:36;10.85;;;6.80;;
37407;SDS011;24866;50.248;8.252;2023-08-20T02:02:06;11.05;;;7.05;;
37407;SDS011;24866;50.248;8.252;2023-08-20T02:04:36;13.18;;;6.85;;
37407;SDS011;24866;50.248;8.252;2023-08-20T02:07:06;10.35;;;6.47;;
37407;SDS011;24866;50.248;8.252;2023-08-20T02:09:36;11.70;;;6.90;;
37407;SDS011;24866;50.248;8.252;2023-08-20T02:12:06;9.63;;;6.47;;
37407;SDS011;24866;50.248;8.252;2023-08-20T02:14:38;10.02;;;6.65;;
37407;SDS011;24866;50.248;8.252;2023-08-20T02:17:08;8.68;;;6.28;;
37407;SDS011;24866;50.248;8.252;2023-08-20T02:19:40;8.20;;;5.57;;
37407;SDS011;24866;50.248;8.252;2023-08-20T02:22:10;9.80;;;5.90;;
37407;SDS011;24866;50.248;8.252;2023-08-20T02:24:39;11.10;;;6.70;;
37407;SDS011;24866;50.248;8.252;2023-08-20T02:27:09;14.93;;;6.35;;
37407;SDS011;24866;50.248;8.252;2023-08-20T02:29:41;13.30;;;6.78;;
37407;SDS011;24866;50.248;8.252;2023-08-20T02:32:11;13.38;;;6.20;;
37407;SDS011;24866;50.248;8.252;2023-08-20T02:34:40;11.07;;;6.30;;
37407;SDS011;24866;50.248;8.252;2023-08-20T02:37:10;11.75;;;6.88;;
37407;SDS011;24866;50.248;8.252;2023-08-20T02:39:40;11.48;;;5.95;;
37407;SDS011;24866;50.248;8.252;2023-08-20T02:42:10;8.13;;;5.78;;
37407;SDS011;24866;50.248;8.252;2023-08-20T02:44:41;9.13;;;6.07;;
37407;SDS011;24866;50.248;8.252;2023-08-20T02:47:11;8.75;;;6.20;;
37407;SDS011;24866;50.248;8.252;2023-08-20T02:49:41;8.07;;;5.80;;
37407;SDS011;24866;50.248;8.252;2023-08-20T02:52:11;10.48;;;6.35;;
37407;SDS011;24866;50.248;8.252;2023-08-20T02:57:13;12.73;;;6.65;;
37407;SDS011;24866;50.248;8.252;2023-08-20T02:59:45;9.75;;;5.85;;
37407;SDS011;24866;50.248;8.252;2023-08-20T03:02:15;9.95;;;6.13;;
37407;SDS011;24866;50.248;8.252;2023-08-20T03:04:45;12.40;;;7.07;;
37407;SDS011;24866;50.248;8.252;2023-08-20T03:07:15;11.20;;;6.60;;
37407;SDS011;24866;50.248;8.252;2023-08-20T03:09:45;10.80;;;6.28;;
37407;SDS011;24866;50.248;8.252;2023-08-20T03:12:15;9.95;;;6.55;;
37407;SDS011;24866;50.248;8.252;2023-08-20T03:14:46;11.73;;;6.53;;
37407;SDS011;24866;50.248;8.252;2023-08-20T03:17:16;11.43;;;6.82;;
37407;SDS011;24866;50.248;8.252;2023-08-20T03:19:53;9.43;;;6.50;;
37407;SDS011;24866;50.248;8.252;2023-08-20T03:22:24;9.07;;;6.25;;
37407;SDS011;24866;50.248;8.252;2023-08-20T03:24:55;11.07;;;8.43;;
37407;SDS011;24866;50.248;8.252;2023-08-20T03:27:25;14.82;;;8.18;;
37407;SDS011;24866;50.248;8.252;2023-08-20T03:29:57;10.75;;;6.25;;
37407;SDS011;24866;50.248;8.252;2023-08-20T03:32:27;12.77;;;7.20;;
37407;SDS011;24866;50.248;8.252;2023-08-20T03:34:57;9.07;;;6.72;;
37407;SDS011;24866;50.248;8.252;2023-08-20T03:37:27;9.93;;;7.13;;
37407;SDS011;24866;50.248;8.252;2023-08-20T03:39:57;8.77;;;6.53;;
37407;SDS011;24866;50.248;8.252;2023-08-20T03:42:27;11.48;;;6.20;;
37407;SDS011;24866;50.248;8.252;2023-08-20T03:44:58;10.40;;;6.03;;
37407;SDS011;24866;50.248;8.252;2023-08-20T03:47:28;9.77;;;6.40;;
37407;SDS011;24866;50.248;8.252;2023-08-20T03:49:58;13.25;;;6.30;;
37407;SDS011;24866;50.248;8.252;2023-08-20T03:52:28;7.70;;;5.90;;
37407;SDS011;24866;50.248;8.252;2023-08-20T03:54:59;8.93;;;6.03;;
37407;SDS011;24866;50.248;8.252;2023-08-20T03:57:29;9.48;;;6.45;;
37407;SDS011;24866;50.248;8.252;2023-08-20T04:00:00;12.88;;;6.65;;
37407;SDS011;24866;50.248;8.252;2023-08-20T04:02:31;10.35;;;6.40;;
37407;SDS011;24866;50.248;8.252;2023-08-20T04:05:01;10.43;;;6.40;;
37407;SDS011;24866;50.248;8.252;2023-08-20T04:07:31;10.15;;;6.95;;
37407;SDS011;24866;50.248;8.252;2023-08-20T04:10:01;14.90;;;6.40;;
37407;SDS011;24866;50.248;8.252;2023-08-20T04:12:31;15.10;;;6.90;;
37407;SDS011;24866;50.248;8.252;2023-08-20T04:15:03;13.80;;;6.85;;
37407;SDS011;24866;50.248;8.252;2023-08-20T04:17:33;10.65;;;6.68;;
37407;SDS011;24866;50.248;8.252;2023-08-20T04:20:04;9.30;;;6.43;;
37407;SDS011;24866;50.248;8.252;2023-08-20T04:22:36;12.57;;;6.65;;
37407;SDS011;24866;50.248;8.252;2023-08-20T04:25:07;13.65;;;7.25;;
37407;SDS011;24866;50.248;8.252;2023-08-20T04:27:37;10.02;;;8.15;;
37407;SDS011;24866;50.248;8.252;2023-08-20T04:30:09;12.35;;;7.38;;
37407;SDS011;24866;50.248;8.252;2023-08-20T04:32:40;11.43;;;6.32;;
37407;SDS011;24866;50.248;8.252;2023-08-20T04:35:10;8.88;;;6.18;;
37407;SDS011;24866;50.248;8.252;2023-08-20T04:37:40;11.40;;;6.50;;
37407;SDS011;24866;50.248;8.252;2023-08-20T04:40:10;7.82;;;6.05;;
37407;SDS011;24866;50.248;8.252;2023-08-20T04:42:40;9.30;;;6.40;;
37407;SDS011;24866;50.248;8.252;2023-08-20T04:45:12;10.55;;;6.22;;
37407;SDS011;24866;50.248;8.252;2023-08-20T04:47:41;11.55;;;6.80;;
37407;SDS011;24866;50.248;8.252;2023-08-20T04:50:11;12.73;;;7.03;;
37407;SDS011;24866;50.248;8.252;2023-08-20T04:52:42;10.00;;;6.78;;
37407;SDS011;24866;50.248;8.252;2023-08-20T04:55:12;9.60;;;6.20;;
37407;SDS011;24866;50.248;8.252;2023-08-20T04:57:43;11.32;;;6.53;;
37407;SDS011;24866;50.248;8.252;2023-08-20T05:00:15;10.98;;;6.50;;
37407;SDS011;24866;50.248;8.252;2023-08-20T05:02:45;11.43;;;6.85;;
37407;SDS011;24866;50.248;8.252;2023-08-20T05:05:15;13.80;;;6.40;;
37407;SDS011;24866;50.248;8.252;2023-08-20T05:07:45;9.55;;;6.53;;
37407;SDS011;24866;50.248;8.252;2023-08-20T05:10:15;8.20;;;6.25;;
37407;SDS011;24866;50.248;8.252;2023-08-20T05:12:45;10.40;;;6.50;;
37407;SDS011;24866;50.248;8.252;2023-08-20T05:15:16;8.68;;;6.22;;
37407;SDS011;24866;50.248;8.252;2023-08-20T05:17:46;10.85;;;6.25;;
37407;SDS011;24866;50.248;8.252;2023-08-20T05:20:16;11.40;;;6.43;;
37407;SDS011;24866;50.248;8.252;2023-08-20T05:22:46;13.25;;;6.57;;
37407;SDS011;24866;50.248;8.252;2023-08-20T05:25:16;10.02;;;6.45;;
37407;SDS011;24866;50.248;8.252;2023-08-20T05:27:46;11.35;;;6.88;;
37407;SDS011;24866;50.248;8.252;2023-08-20T05:30:17;11.20;;;6.22;;
37407;SDS011;24866;50.248;8.252;2023-08-20T05:32:47;11.88;;;7.53;;
37407;SDS011;24866;50.248;8.252;2023-08-20T05:35:17;17.83;;;9.88;;
37407;SDS011;24866;50.248;8.252;2023-08-20T05:37:47;14.75;;;8.93;;
37407;SDS011;24866;50.248;8.252;2023-08-20T05:40:17;13.00;;;7.88;;
37407;SDS011;24866;50.248;8.252;2023-08-20T05:42:46;19.45;;;9.57;;
37407;SDS011;24866;50.248;8.252;2023-08-20T05:45:18;19.92;;;11.43;;
37407;SDS011;24866;50.248;8.252;2023-08-20T05:47:48;25.15;;;12.85;;
37407;SDS011;24866;50.248;8.252;2023-08-20T05:50:18;23.25;;;11.35;;
37407;SDS011;24866;50.248;8.252;2023-08-20T05:52:48;22.73;;;13.57;;
37407;SDS011;24866;50.248;8.252;2023-08-20T05:55:18;20.73;;;14.20;;
37407;SDS011;24866;50.248;8.252;2023-08-20T05:57:48;16.98;;;12.00;;
37407;SDS011;24866;50.248;8.252;2023-08-20T06:00:19;22.67;;;13.73;;
37407;SDS011;24866;50.248;8.252;2023-08-20T06:02:49;18.92;;;11.55;;
37407;SDS011;24866;50.248;8.252;2023-08-20T06:05:19;18.20;;;11.35;;
37407;SDS011;24866;50.248;8.252;2023-08-20T06:07:49;17.73;;;10.63;;
37407;SDS011;24866;50.248;8.252;2023-08-20T06:10:19;17.83;;;13.95;;
37407;SDS011;24866;50.248;8.252;2023-08-20T06:12:49;18.17;;;10.82;;
37407;SDS011;24866;50.248;8.252;2023-08-20T06:15:20;15.18;;;12.52;;
37407;SDS011;24866;50.248;8.252;2023-08-20T06:17:50;13.38;;;10.90;;
37407;SDS011;24866;50.248;8.252;2023-08-20T06:20:20;22.02;;;14.60;;
37407;SDS011;24866;50.248;8.252;2023-08-20T06:22:50;21.58;;;13.93;;
37407;SDS011;24866;50.248;8.252;2023-08-20T06:25:20;15.85;;;10.35;;
37407;SDS011;24866;50.248;8.252;2023-08-20T06:27:50;21.55;;;15.40;;
37407;SDS011;24866;50.248;8.252;2023-08-20T06:30:21;18.27;;;13.98;;
37407;SDS011;24866;50.248;8.252;2023-08-20T06:32:51;18.30;;;13.20;;
37407;SDS011;24866;50.248;8.252;2023-08-20T06:35:21;18.50;;;13.10;;
37407;SDS011;24866;50.248;8.252;2023-08-20T06:37:51;20.27;;;14.30;;
37407;SDS011;24866;50.248;8.252;2023-08-20T06:40:22;22.45;;;15.70;;
37407;SDS011;24866;50.248;8.252;2023-08-20T06:42:52;17.23;;;14.13;;
37407;SDS011;24866;50.248;8.252;2023-08-20T06:45:23;18.25;;;12.93;;
37407;SDS011;24866;50.248;8.252;2023-08-20T06:47:53;22.13;;;16.45;;
37407;SDS011;24866;50.248;8.252;2023-08-20T06:50:23;20.02;;;16.70;;
37407;SDS011;24866;50.248;8.252;2023-08-20T06:52:53;15.68;;;13.32;;
37407;SDS011;24866;50.248;8.252;2023-08-20T06:55:23;17.30;;;15.07;;
37407;SDS011;24866;50.248;8.252;2023-08-20T06:57:53;17.45;;;15.57;;
37407;SDS011;24866;50.248;8.252;2023-08-20T07:00:24;17.50;;;15.68;;
37407;SDS011;24866;50.248;8.252;2023-08-20T07:02:58;16.08;;;14.27;;
37407;SDS011;24866;50.248;8.252;2023-08-20T07:05:28;17.38;;;15.55;;
37407;SDS011;24866;50.248;8.252;2023-08-20T07:07:58;17.00;;;12.80;;
37407;SDS011;24866;50.248;8.252;2023-08-20T07:10:28;14.73;;;13.35;;
37407;SDS011;24866;50.248;8.252;2023-08-20T07:12:58;14.60;;;11.82;;
37407;SDS011;24866;50.248;8.252;2023-08-20T07:15:29;14.93;;;12.43;;
37407;SDS011;24866;50.248;8.252;2023-08-20T07:17:59;16.05;;;12.43;;
37407;SDS011;24866;50.248;8.252;2023-08-20T07:20:29;15.77;;;12.02;;
37407;SDS011;24866;50.248;8.252;2023-08-20T07:22:59;16.42;;;11.95;;
37407;SDS011;24866;50.248;8.252;2023-08-20T07:25:28;16.73;;;11.32;;
37407;SDS011;24866;50.248;8.252;2023-08-20T07:27:58;17.25;;;12.20;;
37407;SDS011;24866;50.248;8.252;2023-08-20T07:30:30;16.08;;;12.85;;
37407;SDS011;24866;50.248;8.252;2023-08-20T07:33:00;15.70;;;12.73;;
37407;SDS011;24866;50.248;8.252;2023-08-20T07:35:31;11.98;;;10.73;;
37407;SDS011;24866;50.248;8.252;2023-08-20T07:38:01;13.77;;;11.02;;
37407;SDS011;24866;50.248;8.252;2023-08-20T07:40:31;16.50;;;13.05;;
37407;SDS011;24866;50.248;8.252;2023-08-20T07:43:00;14.55;;;11.50;;
37407;SDS011;24866;50.248;8.252;2023-08-20T07:45:32;14.73;;;10.63;;
37407;SDS011;24866;50.248;8.252;2023-08-20T07:48:02;13.25;;;9.57;;
37407;SDS011;24866;50.248;8.252;2023-08-20T07:50:32;15.82;;;12.55;;
37407;SDS011;24866;50.248;8.252;2023-08-20T07:53:02;14.23;;;11.85;;
37407;SDS011;24866;50.248;8.252;2023-08-20T07:55:32;15.32;;;12.65;;
37407;SDS011;24866;50.248;8.252;2023-08-20T07:58:02;15.20;;;12.18;;
37407;SDS011;24866;50.248;8.252;2023-08-20T08:00:34;17.17;;;12.88;;
37407;SDS011;24866;50.248;8.252;2023-08-20T08:03:04;17.23;;;12.95;;
37407;SDS011;24866;50.248;8.252;2023-08-20T08:05:34;13.75;;;12.23;;
37407;SDS011;24866;50.248;8.252;2023-08-20T08:08:04;16.67;;;10.77;;
37407;SDS011;24866;50.248;8.252;2023-08-20T08:10:34;15.63;;;11.52;;
37407;SDS011;24866;50.248;8.252;2023-08-20T08:13:04;13.68;;;11.35;;
37407;SDS011;24866;50.248;8.252;2023-08-20T08:15:35;14.75;;;12.55;;
37407;SDS011;24866;50.248;8.252;2023-08-20T08:18:06;14.63;;;11.60;;
37407;SDS011;24866;50.248;8.252;2023-08-20T08:20:36;13.80;;;12.27;;
37407;SDS011;24866;50.248;8.252;2023-08-20T08:23:05;17.95;;;14.30;;
37407;SDS011;24866;50.248;8.252;2023-08-20T08:25:35;13.63;;;11.70;;
37407;SDS011;24866;50.248;8.252;2023-08-20T08:28:06;15.60;;;13.30;;
37407;SDS011;24866;50.248;8.252;2023-08-20T08:30:37;13.15;;;10.38;;
37407;SDS011;24866;50.248;8.252;2023-08-20T08:33:08;10.93;;;9.63;;
37407;SDS011;24866;50.248;8.252;2023-08-20T08:35:37;12.50;;;10.48;;
37407;SDS011;24866;50.248;8.252;2023-08-20T08:38:07;12.02;;;9.85;;
37407;SDS011;24866;50.248;8.252;2023-08-20T08:40:37;12.40;;;9.93;;
37407;SDS011;24866;50.248;8.252;2023-08-20T08:43:10;16.63;;;10.95;;
37407;SDS011;24866;50.248;8.252;2023-08-20T08:45:46;12.25;;;9.20;;
37407;SDS011;24866;50.248;8.252;2023-08-20T08:48:17;12.10;;;8.75;;
37407;SDS011;24866;50.248;8.252;2023-08-20T08:50:48;12.82;;;10.23;;
37407;SDS011;24866;50.248;8.252;2023-08-20T08:53:20;13.10;;;11.80;;
37407;SDS011;24866;50.248;8.252;2023-08-20T08:55:53;12.13;;;10.35;;
37407;SDS011;24866;50.248;8.252;2023-08-20T08:58:24;13.38;;;10.48;;
37407;SDS011;24866;50.248;8.252;2023-08-20T09:00:55;12.88;;;8.60;;
37407;SDS011;24866;50.248;8.252;2023-08-20T09:03:25;11.80;;;8.43;;
37407;SDS011;24866;50.248;8.252;2023-08-20T09:05:57;12.50;;;10.07;;
37407;SDS011;24866;50.248;8.252;2023-08-20T09:08:29;11.43;;;9.88;;
37407;SDS011;24866;50.248;8.252;2023-08-20T09:11:00;10.27;;;8.80;;
37407;SDS011;24866;50.248;8.252;2023-08-20T09:13:35;11.57;;;9.67;;
37407;SDS011;24866;50.248;8.252;2023-08-20T09:16:07;9.70;;;8.05;;
37407;SDS011;24866;50.248;8.252;2023-08-20T09:18:39;10.88;;;9.77;;
37407;SDS011;24866;50.248;8.252;2023-08-20T09:21:10;11.65;;;9.05;;
37407;SDS011;24866;50.248;8.252;2023-08-20T09:23:45;10.30;;;8.35;;
37407;SDS011;24866;50.248;8.252;2023-08-20T09:26:16;12.10;;;9.00;;
37407;SDS011;24866;50.248;8.252;2023-08-20T09:28:46;10.27;;;8.05;;
37407;SDS011;24866;50.248;8.252;2023-08-20T09:31:17;12.80;;;9.02;;
37407;SDS011;24866;50.248;8.252;2023-08-20T09:33:50;9.98;;;7.72;;
37407;SDS011;24866;50.248;8.252;2023-08-20T09:36:29;12.40;;;8.70;;
37407;SDS011;24866;50.248;8.252;2023-08-20T09:39:01;12.88;;;7.82;;
37407;SDS011;24866;50.248;8.252;2023-08-20T09:41:31;11.50;;;9.25;;
37407;SDS011;24866;50.248;8.252;2023-08-20T09:44:03;9.60;;;7.20;;
37407;SDS011;24866;50.248;8.252;2023-08-20T09:46:36;11.07;;;7.78;;
37407;SDS011;24866;50.248;8.252;2023-08-20T09:49:07;12.70;;;8.77;;
37407;SDS011;24866;50.248;8.252;2023-08-20T09:51:40;9.70;;;7.15;;
37407;SDS011;24866;50.248;8.252;2023-08-20T09:54:12;9.07;;;8.15;;
37407;SDS011;24866;50.248;8.252;2023-08-20T09:56:46;9.85;;;7.22;;
37407;SDS011;24866;50.248;8.252;2023-08-20T09:59:23;8.43;;;6.88;;
37407;SDS011;24866;50.248;8.252;2023-08-20T10:01:55;9.73;;;6.78;;
37407;SDS011;24866;50.248;8.252;2023-08-20T10:06:56;9.23;;;8.10;;
37407;SDS011;24866;50.248;8.252;2023-08-20T10:09:27;9.43;;;7.03;;
37407;SDS011;24866;50.248;8.252;2023-08-20T10:11:57;7.68;;;5.90;;
37407;SDS011;24866;50.248;8.252;2023-08-20T10:14:29;9.07;;;5.53;;
37407;SDS011;24866;50.248;8.252;2023-08-20T10:17:01;8.48;;;5.88;;
37407;SDS011;24866;50.248;8.252;2023-08-20T10:19:36;8.13;;;6.25;;
37407;SDS011;24866;50.248;8.252;2023-08-20T10:22:06;8.25;;;6.63;;
37407;SDS011;24866;50.248;8.252;2023-08-20T10:24:40;8.13;;;6.18;;
37407;SDS011;24866;50.248;8.252;2023-08-20T10:27:23;7.40;;;6.10;;
37407;SDS011;24866;50.248;8.252;2023-08-20T10:29:54;8.38;;;6.32;;
37407;SDS011;24866;50.248;8.252;2023-08-20T10:35:17;7.15;;;5.57;;
37407;SDS011;24866;50.248;8.252;2023-08-20T10:38:01;9.88;;;5.63;;
37407;SDS011;24866;50.248;8.252;2023-08-20T10:40:51;9.35;;;6.00;;
37407;SDS011;24866;50.248;8.252;2023-08-20T10:43:26;9.23;;;6.72;;
37407;SDS011;24866;50.248;8.252;2023-08-20T10:46:16;8.23;;;6.07;;
37407;SDS011;24866;50.248;8.252;2023-08-20T10:48:48;6.55;;;5.40;;
37407;SDS011;24866;50.248;8.252;2023-08-20T10:51:24;8.07;;;6.28;;
37407;SDS011;24866;50.248;8.252;2023-08-20T10:54:02;8.27;;;5.50;;
37407;SDS011;24866;50.248;8.252;2023-08-20T10:56:37;7.22;;;5.40;;
37407;SDS011;24866;50.248;8.252;2023-08-20T10:59:09;9.10;;;5.28;;
37407;SDS011;24866;50.248;8.252;2023-08-20T11:01:43;7.97;;;4.95;;
37407;SDS011;24866;50.248;8.252;2023-08-20T11:04:16;7.37;;;4.80;;
37407;SDS011;24866;50.248;8.252;2023-08-20T11:06:49;7.93;;;4.47;;
37407;SDS011;24866;50.248;8.252;2023-08-20T11:09:22;8.05;;;4.85;;
37407;SDS011;24866;50.248;8.252;2023-08-20T11:11:52;6.85;;;4.60;;
37407;SDS011;24866;50.248;8.252;2023-08-20T11:14:23;6.93;;;5.07;;
37407;SDS011;24866;50.248;8.252;2023-08-20T11:16:54;7.55;;;4.43;;
37407;SDS011;24866;50.248;8.252;2023-08-20T11:19:25;8.05;;;5.05;;
37407;SDS011;24866;50.248;8.252;2023-08-20T11:21:55;6.97;;;4.13;;
37407;SDS011;24866;50.248;8.252;2023-08-20T11:24:28;9.20;;;4.80;;
37407;SDS011;24866;50.248;8.252;2023-08-20T11:26:58;6.85;;;4.97;;
37407;SDS011;24866;50.248;8.252;2023-08-20T11:29:28;6.47;;;4.35;;
37407;SDS011;24866;50.248;8.252;2023-08-20T11:31:59;6.32;;;4.43;;
37407;SDS011;24866;50.248;8.252;2023-08-20T11:34:32;8.00;;;4.60;;
37407;SDS011;24866;50.248;8.252;2023-08-20T11:37:13;7.43;;;4.50;;
37407;SDS011;24866;50.248;8.252;2023-08-20T11:39:47;8.82;;;4.82;;
37407;SDS011;24866;50.248;8.252;2023-08-20T11:42:17;5.85;;;4.10;;
37407;SDS011;24866;50.248;8.252;2023-08-20T11:44:48;6.15;;;4.88;;
37407;SDS011;24866;50.248;8.252;2023-08-20T11:47:18;4.95;;;3.53;;
37407;SDS011;24866;50.248;8.252;2023-08-20T11:49:56;5.30;;;4.00;;
37407;SDS011;24866;50.248;8.252;2023-08-20T11:52:32;4.97;;;3.83;;
37407;SDS011;24866;50.248;8.252;2023-08-20T11:55:02;6.25;;;3.85;;
37407;SDS011;24866;50.248;8.252;2023-08-20T11:57:32;4.72;;;3.83;;
37407;SDS011;24866;50.248;8.252;2023-08-20T12:00:03;6.72;;;4.00;;
37407;SDS011;24866;50.248;8.252;2023-08-20T12:02:36;6.35;;;4.70;;
37407;SDS011;24866;50.248;8.252;2023-08-20T12:05:11;6.15;;;4.10;;
37407;SDS011;24866;50.248;8.252;2023-08-20T12:07:42;6.03;;;4.32;;
37407;SDS011;24866;50.248;8.252;2023-08-20T12:10:23;5.75;;;4.38;;
37407;SDS011;24866;50.248;8.252;2023-08-20T12:12:54;8.05;;;4.57;;
37407;SDS011;24866;50.248;8.252;2023-08-20T12:15:25;7.25;;;3.75;;
37407;SDS011;24866;50.248;8.252;2023-08-20T12:17:59;8.13;;;3.83;;
37407;SDS011;24866;50.248;8.252;2023-08-20T12:20:33;5.22;;;4.05;;
37407;SDS011;24866;50.248;8.252;2023-08-20T12:23:05;9.75;;;4.82;;
37407;SDS011;24866;50.248;8.252;2023-08-20T12:25:36;8.57;;;4.28;;
37407;SDS011;24866;50.248;8.252;2023-08-20T12:28:06;6.20;;;4.80;;
37407;SDS011;24866;50.248;8.252;2023-08-20T12:30:36;6.85;;;4.35;;
37407;SDS011;24866;50.248;8.252;2023-08-20T12:33:06;7.65;;;4.28;;
37407;SDS011;24866;50.248;8.252;2023-08-20T12:35:38;8.05;;;5.35;;
37407;SDS011;24866;50.248;8.252;2023-08-20T12:38:08;5.63;;;4.40;;
37407;SDS011;24866;50.248;8.252;2023-08-20T12:40:38;7.88;;;4.68;;
37407;SDS011;24866;50.248;8.252;2023-08-20T12:43:08;7.13;;;4.97;;
37407;SDS011;24866;50.248;8.252;2023-08-20T12:45:38;6.53;;;4.82;;
37407;SDS011;24866;50.248;8.252;2023-08-20T12:48:08;7.82;;;5.00;;
37407;SDS011;24866;50.248;8.252;2023-08-20T12:50:39;6.30;;;5.22;;
37407;SDS011;24866;50.248;8.252;2023-08-20T12:53:09;9.50;;;5.82;;
37407;SDS011;24866;50.248;8.252;2023-08-20T12:55:41;7.13;;;5.07;;
37407;SDS011;24866;50.248;8.252;2023-08-20T12:58:10;7.38;;;4.32;;
37407;SDS011;24866;50.248;8.252;2023-08-20T13:00:40;7.60;;;4.82;;
37407;SDS011;24866;50.248;8.252;2023-08-20T13:03:11;6.25;;;4.18;;
37407;SDS011;24866;50.248;8.252;2023-08-20T13:05:43;8.93;;;5.43;;
37407;SDS011;24866;50.248;8.252;2023-08-20T13:08:13;7.18;;;4.30;;
37407;SDS011;24866;50.248;8.252;2023-08-20T13:10:44;7.22;;;5.20;;
37407;SDS011;24866;50.248;8.252;2023-08-20T13:13:23;5.90;;;4.43;;
37407;SDS011;24866;50.248;8.252;2023-08-20T13:15:54;6.57;;;5.07;;
37407;SDS011;24866;50.248;8.252;2023-08-20T13:18:24;5.72;;;4.60;;
37407;SDS011;24866;50.248;8.252;2023-08-20T13:20:56;8.07;;;4.75;;
37407;SDS011;24866;50.248;8.252;2023-08-20T13:23:26;8.57;;;5.10;;
37407;SDS011;24866;50.248;8.252;2023-08-20T13:25:56;9.93;;;5.30;;
37407;SDS011;24866;50.248;8.252;2023-08-20T13:28:26;6.15;;;5.03;;
37407;SDS011;24866;50.248;8.252;2023-08-20T13:30:56;8.95;;;5.57;;
37407;SDS011;24866;50.248;8.252;2023-08-20T13:33:26;7.18;;;5.03;;
37407;SDS011;24866;50.248;8.252;2023-08-20T13:35:58;8.00;;;5.10;;
37407;SDS011;24866;50.248;8.252;2023-08-20T13:38:28;6.87;;;4.20;;
37407;SDS011;24866;50.248;8.252;2023-08-20T13:40:57;8.40;;;4.38;;
37407;SDS011;24866;50.248;8.252;2023-08-20T13:43:28;7.03;;;4.28;;
37407;SDS011;24866;50.248;8.252;2023-08-20T13:46:00;6.13;;;4.30;;
37407;SDS011;24866;50.248;8.252;2023-08-20T13:48:31;6.15;;;4.13;;
37407;SDS011;24866;50.248;8.252;2023-08-20T13:51:02;8.57;;;4.65;;
37407;SDS011;24866;50.248;8.252;2023-08-20T13:53:32;6.97;;;4.63;;
37407;SDS011;24866;50.248;8.252;2023-08-20T13:56:02;6.45;;;4.18;;
37407;SDS011;24866;50.248;8.252;2023-08-20T13:58:32;7.40;;;3.97;;
37407;SDS011;24866;50.248;8.252;2023-08-20T14:01:02;6.18;;;4.18;;
37407;SDS011;24866;50.248;8.252;2023-08-20T14:03:32;5.13;;;3.92;;
37407;SDS011;24866;50.248;8.252;2023-08-20T14:06:05;7.55;;;3.80;;
37407;SDS011;24866;50.248;8.252;2023-08-20T14:08:34;5.90;;;3.90;;
37407;SDS011;24866;50.248;8.252;2023-08-20T14:11:04;7.30;;;3.60;;
37407;SDS011;24866;50.248;8.252;2023-08-20T14:13:34;5.95;;;3.85;;
37407;SDS011;24866;50.248;8.252;2023-08-20T14:16:04;7.22;;;3.95;;
37407;SDS011;24866;50.248;8.252;2023-08-20T14:18:34;5.93;;;4.20;;
37407;SDS011;24866;50.248;8.252;2023-08-20T14:21:05;8.60;;;4.55;;
37407;SDS011;24866;50.248;8.252;2023-08-20T14:23:35;6.90;;;3.80;;
37407;SDS011;24866;50.248;8.252;2023-08-20T14:26:06;6.72;;;4.55;;
37407;SDS011;24866;50.248;8.252;2023-08-20T14:28:36;5.60;;;3.65;;
37407;SDS011;24866;50.248;8.252;2023-08-20T14:31:06;7.85;;;3.75;;
37407;SDS011;24866;50.248;8.252;2023-08-20T14:33:35;5.53;;;4.22;;
37407;SDS011;24866;50.248;8.252;2023-08-20T14:36:08;8.18;;;4.47;;
37407;SDS011;24866;50.248;8.252;2023-08-20T14:38:38;7.75;;;3.80;;
37407;SDS011;24866;50.248;8.252;2023-08-20T14:41:08;6.93;;;4.10;;
37407;SDS011;24866;50.248;8.252;2023-08-20T14:43:38;7.65;;;3.88;;
37407;SDS011;24866;50.248;8.252;2023-08-20T14:46:09;6.20;;;3.80;;
37407;SDS011;24866;50.248;8.252;2023-08-20T14:48:39;5.70;;;3.58;;
37407;SDS011;24866;50.248;8.252;2023-08-20T14:51:12;5.90;;;3.63;;
37407;SDS011;24866;50.248;8.252;2023-08-20T14:53:42;6.70;;;3.50;;
37407;SDS011;24866;50.248;8.252;2023-08-20T14:56:12;7.45;;;6.13;;
37407;SDS011;24866;50.248;8.252;2023-08-20T14:58:42;6.47;;;4.25;;
37407;SDS011;24866;50.248;8.252;2023-08-20T15:01:12;5.85;;;4.07;;
37407;SDS011;24866;50.248;8.252;2023-08-20T15:03:42;6.40;;;3.88;;
37407;SDS011;24866;50.248;8.252;2023-08-20T15:06:13;6.25;;;3.88;;
37407;SDS011;24866;50.248;8.252;2023-08-20T15:08:43;4.43;;;3.77;;
37407;SDS011;24866;50.248;8.252;2023-08-20T15:11:13;6.68;;;3.53;;
37407;SDS011;24866;50.248;8.252;2023-08-20T15:13:43;5.22;;;3.42;;